sensor_id;sensor_type;location;lat;lon;timestamp;P1;durP1;ratioP1;P2;durP2;ratioP2
35558;SDS011;21661;50.794;-1.066;2023-07-31T00:00:38;4.43;;;0.93;;
35558;SDS011;21661;50.794;-1.066;2023-07-31T00:03:05;2.72;;;0.70;;
35558;SDS011;21661;50.794;-1.066;2023-07-31T00:05:30;2.28;;;0.73;;
35558;SDS011;21661;50.794;-1.066;2023-07-31T00:07:56;3.78;;;1.00;;
35558;SDS011;21661;50.794;-1.066;2023-07-31T00:10:22;3.17;;;1.20;;
35558;SDS011;21661;50.794;-1.066;2023-07-31T00:12:47;2.22;;;0.80;;
35558;SDS011;21661;50.794;-1.066;2023-07-31T00:15:13;3.42;;;1.00;;
35558;SDS011;21661;50.794;-1.066;2023-07-31T00:17:39;2.42;;;0.88;;
35558;SDS011;21661;50.794;-1.066;2023-07-31T00:20:06;2.97;;;1.10;;
35558;SDS011;21661;50.794;-1.066;2023-07-31T00:22:32;3.85;;;1.30;;
35558;SDS011;21661;50.794;-1.066;2023-07-31T00:24:57;4.43;;;1.10;;
35558;SDS011;21661;50.794;-1.066;2023-07-31T00:27:24;3.80;;;1.45;;
35558;SDS011;21661;50.794;-1.066;2023-07-31T00:29:50;5.25;;;1.75;;
35558;SDS011;21661;50.794;-1.066;2023-07-31T00:32:15;4.60;;;1.40;;
35558;SDS011;21661;50.794;-1.066;2023-07-31T00:34:41;3.17;;;1.10;;
35558;SDS011;21661;50.794;-1.066;2023-07-31T00:37:07;3.63;;;1.40;;
35558;SDS011;21661;50.794;-1.066;2023-07-31T00:39:33;3.67;;;1.17;;
35558;SDS011;21661;50.794;-1.066;2023-07-31T00:41:59;3.10;;;1.23;;
35558;SDS011;21661;50.794;-1.066;2023-07-31T00:44:25;3.80;;;1.30;;
35558;SDS011;21661;50.794;-1.066;2023-07-31T00:46:51;4.28;;;1.40;;
35558;SDS011;21661;50.794;-1.066;2023-07-31T00:49:17;3.60;;;1.10;;
35558;SDS011;21661;50.794;-1.066;2023-07-31T00:51:43;4.47;;;1.20;;
35558;SDS011;21661;50.794;-1.066;2023-07-31T00:54:08;4.90;;;1.70;;
35558;SDS011;21661;50.794;-1.066;2023-07-31T00:56:34;4.68;;;1.70;;
35558;SDS011;21661;50.794;-1.066;2023-07-31T00:59:00;5.40;;;1.80;;
35558;SDS011;21661;50.794;-1.066;2023-07-31T01:01:25;6.07;;;1.65;;
35558;SDS011;21661;50.794;-1.066;2023-07-31T01:03:51;5.47;;;1.88;;
35558;SDS011;21661;50.794;-1.066;2023-07-31T01:09:02;6.35;;;1.90;;
35558;SDS011;21661;50.794;-1.066;2023-07-31T01:11:34;6.07;;;2.00;;
35558;SDS011;21661;50.794;-1.066;2023-07-31T01:14:02;4.88;;;1.80;;
35558;SDS011;21661;50.794;-1.066;2023-07-31T01:16:28;5.53;;;1.70;;
35558;SDS011;21661;50.794;-1.066;2023-07-31T01:18:54;6.15;;;1.83;;
35558;SDS011;21661;50.794;-1.066;2023-07-31T01:24:51;4.68;;;1.63;;
35558;SDS011;21661;50.794;-1.066;2023-07-31T01:27:14;6.20;;;1.92;;
35558;SDS011;21661;50.794;-1.066;2023-07-31T01:29:56;6.60;;;1.98;;
35558;SDS011;21661;50.794;-1.066;2023-07-31T01:32:29;4.68;;;1.65;;
35558;SDS011;21661;50.794;-1.066;2023-07-31T01:34:54;5.57;;;1.80;;
35558;SDS011;21661;50.794;-1.066;2023-07-31T01:37:27;5.72;;;1.42;;
35558;SDS011;21661;50.794;-1.066;2023-07-31T01:39:53;5.65;;;1.55;;
35558;SDS011;21661;50.794;-1.066;2023-07-31T01:42:19;4.63;;;1.33;;
35558;SDS011;21661;50.794;-1.066;2023-07-31T01:44:45;4.10;;;1.42;;
35558;SDS011;21661;50.794;-1.066;2023-07-31T01:47:11;3.40;;;1.00;;
35558;SDS011;21661;50.794;-1.066;2023-07-31T01:49:36;3.70;;;1.10;;
35558;SDS011;21661;50.794;-1.066;2023-07-31T01:52:02;3.45;;;0.73;;
35558;SDS011;21661;50.794;-1.066;2023-07-31T01:54:28;2.92;;;1.05;;
35558;SDS011;21661;50.794;-1.066;2023-07-31T01:56:53;2.33;;;0.90;;
35558;SDS011;21661;50.794;-1.066;2023-07-31T01:59:19;1.85;;;0.80;;
35558;SDS011;21661;50.794;-1.066;2023-07-31T02:01:44;2.10;;;0.70;;
35558;SDS011;21661;50.794;-1.066;2023-07-31T02:04:10;2.90;;;0.75;;
35558;SDS011;21661;50.794;-1.066;2023-07-31T02:06:35;2.92;;;0.55;;
35558;SDS011;21661;50.794;-1.066;2023-07-31T02:09:01;1.58;;;0.60;;
35558;SDS011;21661;50.794;-1.066;2023-07-31T02:11:28;1.95;;;0.70;;
35558;SDS011;21661;50.794;-1.066;2023-07-31T02:13:54;2.05;;;0.68;;
35558;SDS011;21661;50.794;-1.066;2023-07-31T02:16:19;2.70;;;0.70;;
35558;SDS011;21661;50.794;-1.066;2023-07-31T02:18:45;3.30;;;0.88;;
35558;SDS011;21661;50.794;-1.066;2023-07-31T02:21:10;2.13;;;0.70;;
35558;SDS011;21661;50.794;-1.066;2023-07-31T02:23:36;2.83;;;0.65;;
35558;SDS011;21661;50.794;-1.066;2023-07-31T02:26:01;1.77;;;0.60;;
35558;SDS011;21661;50.794;-1.066;2023-07-31T02:28:28;1.80;;;0.50;;
35558;SDS011;21661;50.794;-1.066;2023-07-31T02:30:54;2.05;;;0.60;;
35558;SDS011;21661;50.794;-1.066;2023-07-31T02:33:19;1.70;;;0.35;;
35558;SDS011;21661;50.794;-1.066;2023-07-31T02:35:45;1.92;;;0.50;;
35558;SDS011;21661;50.794;-1.066;2023-07-31T02:38:10;1.42;;;0.40;;
35558;SDS011;21661;50.794;-1.066;2023-07-31T02:40:36;1.98;;;0.40;;
35558;SDS011;21661;50.794;-1.066;2023-07-31T02:43:02;1.13;;;0.40;;
35558;SDS011;21661;50.794;-1.066;2023-07-31T02:45:27;1.60;;;0.50;;
35558;SDS011;21661;50.794;-1.066;2023-07-31T02:47:53;1.10;;;0.30;;
35558;SDS011;21661;50.794;-1.066;2023-07-31T02:50:18;1.85;;;0.50;;
35558;SDS011;21661;50.794;-1.066;2023-07-31T02:52:44;1.58;;;0.40;;
35558;SDS011;21661;50.794;-1.066;2023-07-31T02:55:09;1.15;;;0.35;;
35558;SDS011;21661;50.794;-1.066;2023-07-31T02:57:36;1.00;;;0.32;;
35558;SDS011;21661;50.794;-1.066;2023-07-31T03:00:01;1.63;;;0.30;;
35558;SDS011;21661;50.794;-1.066;2023-07-31T03:02:30;0.75;;;0.30;;
35558;SDS011;21661;50.794;-1.066;2023-07-31T03:04:56;1.77;;;0.30;;
35558;SDS011;21661;50.794;-1.066;2023-07-31T03:07:21;1.17;;;0.30;;
35558;SDS011;21661;50.794;-1.066;2023-07-31T03:09:47;1.00;;;0.30;;
35558;SDS011;21661;50.794;-1.066;2023-07-31T03:12:13;0.85;;;0.30;;
35558;SDS011;21661;50.794;-1.066;2023-07-31T03:14:38;0.90;;;0.30;;
35558;SDS011;21661;50.794;-1.066;2023-07-31T03:17:04;1.23;;;0.38;;
35558;SDS011;21661;50.794;-1.066;2023-07-31T03:19:30;0.90;;;0.20;;
35558;SDS011;21661;50.794;-1.066;2023-07-31T03:21:57;1.17;;;0.40;;
35558;SDS011;21661;50.794;-1.066;2023-07-31T03:24:23;1.27;;;0.30;;
35558;SDS011;21661;50.794;-1.066;2023-07-31T03:26:48;1.33;;;0.40;;
35558;SDS011;21661;50.794;-1.066;2023-07-31T03:29:14;0.50;;;0.20;;
35558;SDS011;21661;50.794;-1.066;2023-07-31T03:31:39;1.15;;;0.30;;
35558;SDS011;21661;50.794;-1.066;2023-07-31T03:34:05;0.47;;;0.17;;
35558;SDS011;21661;50.794;-1.066;2023-07-31T03:36:30;0.77;;;0.20;;
35558;SDS011;21661;50.794;-1.066;2023-07-31T03:38:56;0.73;;;0.20;;
35558;SDS011;21661;50.794;-1.066;2023-07-31T03:41:22;1.17;;;0.40;;
35558;SDS011;21661;50.794;-1.066;2023-07-31T03:43:49;1.00;;;0.35;;
35558;SDS011;21661;50.794;-1.066;2023-07-31T03:46:18;1.98;;;0.40;;
35558;SDS011;21661;50.794;-1.066;2023-07-31T03:48:43;1.15;;;0.30;;
35558;SDS011;21661;50.794;-1.066;2023-07-31T03:51:09;1.10;;;0.30;;
35558;SDS011;21661;50.794;-1.066;2023-07-31T03:53:35;0.82;;;0.30;;
35558;SDS011;21661;50.794;-1.066;2023-07-31T03:56:00;0.75;;;0.30;;
35558;SDS011;21661;50.794;-1.066;2023-07-31T03:58:26;0.80;;;0.30;;
35558;SDS011;21661;50.794;-1.066;2023-07-31T04:00:51;0.70;;;0.30;;
35558;SDS011;21661;50.794;-1.066;2023-07-31T04:03:17;0.90;;;0.38;;
35558;SDS011;21661;50.794;-1.066;2023-07-31T04:05:42;0.60;;;0.20;;
35558;SDS011;21661;50.794;-1.066;2023-07-31T04:08:08;0.82;;;0.22;;
35558;SDS011;21661;50.794;-1.066;2023-07-31T04:10:33;0.77;;;0.30;;
35558;SDS011;21661;50.794;-1.066;2023-07-31T04:12:59;0.90;;;0.30;;
35558;SDS011;21661;50.794;-1.066;2023-07-31T04:15:25;1.00;;;0.30;;
35558;SDS011;21661;50.794;-1.066;2023-07-31T04:17:51;1.08;;;0.30;;
35558;SDS011;21661;50.794;-1.066;2023-07-31T04:20:17;1.20;;;0.30;;
35558;SDS011;21661;50.794;-1.066;2023-07-31T04:22:42;1.00;;;0.20;;
35558;SDS011;21661;50.794;-1.066;2023-07-31T04:25:08;0.88;;;0.28;;
35558;SDS011;21661;50.794;-1.066;2023-07-31T04:27:34;0.63;;;0.25;;
35558;SDS011;21661;50.794;-1.066;2023-07-31T04:29:59;0.80;;;0.30;;
35558;SDS011;21661;50.794;-1.066;2023-07-31T04:32:25;0.85;;;0.40;;
35558;SDS011;21661;50.794;-1.066;2023-07-31T04:34:51;0.82;;;0.30;;
35558;SDS011;21661;50.794;-1.066;2023-07-31T04:37:16;1.10;;;0.40;;
35558;SDS011;21661;50.794;-1.066;2023-07-31T04:39:42;1.15;;;0.40;;
35558;SDS011;21661;50.794;-1.066;2023-07-31T04:42:07;1.02;;;0.40;;
35558;SDS011;21661;50.794;-1.066;2023-07-31T04:44:33;0.95;;;0.25;;
35558;SDS011;21661;50.794;-1.066;2023-07-31T04:46:58;0.73;;;0.20;;
35558;SDS011;21661;50.794;-1.066;2023-07-31T04:49:24;0.70;;;0.20;;
35558;SDS011;21661;50.794;-1.066;2023-07-31T04:51:50;0.75;;;0.20;;
35558;SDS011;21661;50.794;-1.066;2023-07-31T04:54:15;0.73;;;0.22;;
35558;SDS011;21661;50.794;-1.066;2023-07-31T04:56:41;0.30;;;0.20;;
35558;SDS011;21661;50.794;-1.066;2023-07-31T04:59:07;0.60;;;0.30;;
35558;SDS011;21661;50.794;-1.066;2023-07-31T05:01:32;0.55;;;0.20;;
35558;SDS011;21661;50.794;-1.066;2023-07-31T05:03:58;0.82;;;0.20;;
35558;SDS011;21661;50.794;-1.066;2023-07-31T05:06:23;0.73;;;0.20;;
35558;SDS011;21661;50.794;-1.066;2023-07-31T05:08:49;0.47;;;0.15;;
35558;SDS011;21661;50.794;-1.066;2023-07-31T05:11:15;0.52;;;0.20;;
35558;SDS011;21661;50.794;-1.066;2023-07-31T05:13:41;0.98;;;0.38;;
35558;SDS011;21661;50.794;-1.066;2023-07-31T05:16:06;0.52;;;0.20;;
35558;SDS011;21661;50.794;-1.066;2023-07-31T05:18:32;0.45;;;0.20;;
35558;SDS011;21661;50.794;-1.066;2023-07-31T05:20:57;0.70;;;0.20;;
35558;SDS011;21661;50.794;-1.066;2023-07-31T05:23:23;0.50;;;0.17;;
35558;SDS011;21661;50.794;-1.066;2023-07-31T05:25:48;0.65;;;0.20;;
35558;SDS011;21661;50.794;-1.066;2023-07-31T05:28:14;0.75;;;0.10;;
35558;SDS011;21661;50.794;-1.066;2023-07-31T05:30:40;0.38;;;0.10;;
35558;SDS011;21661;50.794;-1.066;2023-07-31T05:33:05;0.30;;;0.10;;
35558;SDS011;21661;50.794;-1.066;2023-07-31T05:35:31;0.63;;;0.20;;
35558;SDS011;21661;50.794;-1.066;2023-07-31T05:37:56;0.30;;;0.13;;
35558;SDS011;21661;50.794;-1.066;2023-07-31T05:40:22;0.75;;;0.10;;
35558;SDS011;21661;50.794;-1.066;2023-07-31T05:42:48;1.10;;;0.30;;
35558;SDS011;21661;50.794;-1.066;2023-07-31T05:45:13;0.20;;;0.10;;
35558;SDS011;21661;50.794;-1.066;2023-07-31T05:47:39;0.63;;;0.15;;
35558;SDS011;21661;50.794;-1.066;2023-07-31T05:50:05;0.38;;;0.00;;
35558;SDS011;21661;50.794;-1.066;2023-07-31T05:52:30;0.30;;;0.10;;
35558;SDS011;21661;50.794;-1.066;2023-07-31T05:54:56;0.70;;;0.10;;
35558;SDS011;21661;50.794;-1.066;2023-07-31T05:57:22;0.75;;;0.22;;
35558;SDS011;21661;50.794;-1.066;2023-07-31T05:59:47;0.32;;;0.10;;
35558;SDS011;21661;50.794;-1.066;2023-07-31T06:02:13;0.75;;;0.20;;
35558;SDS011;21661;50.794;-1.066;2023-07-31T06:04:38;0.60;;;0.20;;
35558;SDS011;21661;50.794;-1.066;2023-07-31T06:07:04;0.45;;;0.13;;
35558;SDS011;21661;50.794;-1.066;2023-07-31T06:09:30;0.40;;;0.10;;
35558;SDS011;21661;50.794;-1.066;2023-07-31T06:11:56;0.10;;;0.00;;
35558;SDS011;21661;50.794;-1.066;2023-07-31T06:14:21;0.15;;;0.00;;
35558;SDS011;21661;50.794;-1.066;2023-07-31T06:16:47;0.15;;;0.00;;
35558;SDS011;21661;50.794;-1.066;2023-07-31T06:19:13;0.10;;;0.00;;
35558;SDS011;21661;50.794;-1.066;2023-07-31T06:21:38;0.10;;;0.00;;
35558;SDS011;21661;50.794;-1.066;2023-07-31T06:24:05;0.20;;;0.00;;
35558;SDS011;21661;50.794;-1.066;2023-07-31T06:26:31;0.10;;;0.00;;
35558;SDS011;21661;50.794;-1.066;2023-07-31T06:28:56;0.20;;;0.00;;
35558;SDS011;21661;50.794;-1.066;2023-07-31T06:31:22;0.00;;;0.00;;
35558;SDS011;21661;50.794;-1.066;2023-07-31T06:33:48;0.00;;;0.00;;
35558;SDS011;21661;50.794;-1.066;2023-07-31T06:36:14;0.45;;;0.10;;
35558;SDS011;21661;50.794;-1.066;2023-07-31T06:38:41;0.00;;;0.00;;
35558;SDS011;21661;50.794;-1.066;2023-07-31T06:41:07;0.25;;;0.00;;
35558;SDS011;21661;50.794;-1.066;2023-07-31T06:43:32;0.20;;;0.00;;
35558;SDS011;21661;50.794;-1.066;2023-07-31T06:45:59;0.28;;;0.00;;
35558;SDS011;21661;50.794;-1.066;2023-07-31T06:48:30;0.10;;;0.00;;
35558;SDS011;21661;50.794;-1.066;2023-07-31T06:50:56;0.28;;;0.10;;
35558;SDS011;21661;50.794;-1.066;2023-07-31T06:53:21;0.30;;;0.10;;
35558;SDS011;21661;50.794;-1.066;2023-07-31T06:55:47;0.20;;;0.00;;
35558;SDS011;21661;50.794;-1.066;2023-07-31T06:58:13;0.20;;;0.00;;
35558;SDS011;21661;50.794;-1.066;2023-07-31T07:00:38;0.28;;;0.10;;
35558;SDS011;21661;50.794;-1.066;2023-07-31T07:03:04;0.45;;;0.10;;
35558;SDS011;21661;50.794;-1.066;2023-07-31T07:05:30;0.17;;;0.00;;
35558;SDS011;21661;50.794;-1.066;2023-07-31T07:07:55;0.13;;;0.10;;
35558;SDS011;21661;50.794;-1.066;2023-07-31T07:10:21;0.35;;;0.13;;
35558;SDS011;21661;50.794;-1.066;2023-07-31T07:12:46;0.10;;;0.00;;
35558;SDS011;21661;50.794;-1.066;2023-07-31T07:15:12;0.10;;;0.00;;
35558;SDS011;21661;50.794;-1.066;2023-07-31T07:17:38;0.52;;;0.10;;
35558;SDS011;21661;50.794;-1.066;2023-07-31T07:20:04;0.25;;;0.10;;
35558;SDS011;21661;50.794;-1.066;2023-07-31T07:22:30;0.38;;;0.30;;
35558;SDS011;21661;50.794;-1.066;2023-07-31T07:24:55;0.75;;;0.10;;
35558;SDS011;21661;50.794;-1.066;2023-07-31T07:27:21;0.75;;;0.10;;
35558;SDS011;21661;50.794;-1.066;2023-07-31T07:29:47;0.57;;;0.10;;
35558;SDS011;21661;50.794;-1.066;2023-07-31T07:32:15;0.88;;;0.20;;
35558;SDS011;21661;50.794;-1.066;2023-07-31T07:34:42;0.57;;;0.10;;
35558;SDS011;21661;50.794;-1.066;2023-07-31T07:37:08;0.35;;;0.10;;
35558;SDS011;21661;50.794;-1.066;2023-07-31T07:39:33;0.47;;;0.10;;
35558;SDS011;21661;50.794;-1.066;2023-07-31T07:41:59;0.35;;;0.10;;
35558;SDS011;21661;50.794;-1.066;2023-07-31T07:44:24;0.22;;;0.10;;
35558;SDS011;21661;50.794;-1.066;2023-07-31T07:46:50;0.15;;;0.08;;
35558;SDS011;21661;50.794;-1.066;2023-07-31T07:49:15;0.20;;;0.10;;
35558;SDS011;21661;50.794;-1.066;2023-07-31T07:51:41;0.30;;;0.03;;
35558;SDS011;21661;50.794;-1.066;2023-07-31T07:54:07;0.32;;;0.10;;
35558;SDS011;21661;50.794;-1.066;2023-07-31T07:56:32;0.30;;;0.10;;
35558;SDS011;21661;50.794;-1.066;2023-07-31T07:58:58;0.20;;;0.00;;
35558;SDS011;21661;50.794;-1.066;2023-07-31T08:01:23;0.20;;;0.03;;
35558;SDS011;21661;50.794;-1.066;2023-07-31T08:03:49;0.40;;;0.10;;
35558;SDS011;21661;50.794;-1.066;2023-07-31T08:06:15;0.22;;;0.10;;
35558;SDS011;21661;50.794;-1.066;2023-07-31T08:08:41;0.45;;;0.10;;
35558;SDS011;21661;50.794;-1.066;2023-07-31T08:11:06;0.10;;;0.00;;
35558;SDS011;21661;50.794;-1.066;2023-07-31T08:13:32;0.35;;;0.00;;
35558;SDS011;21661;50.794;-1.066;2023-07-31T08:15:58;0.30;;;0.10;;
35558;SDS011;21661;50.794;-1.066;2023-07-31T08:18:24;0.30;;;0.00;;
35558;SDS011;21661;50.794;-1.066;2023-07-31T08:20:49;0.08;;;0.00;;
35558;SDS011;21661;50.794;-1.066;2023-07-31T08:23:15;0.32;;;0.10;;
35558;SDS011;21661;50.794;-1.066;2023-07-31T08:25:40;0.30;;;0.08;;
35558;SDS011;21661;50.794;-1.066;2023-07-31T08:28:07;0.25;;;0.00;;
35558;SDS011;21661;50.794;-1.066;2023-07-31T08:30:32;0.57;;;0.10;;
35558;SDS011;21661;50.794;-1.066;2023-07-31T08:32:58;0.10;;;0.00;;
35558;SDS011;21661;50.794;-1.066;2023-07-31T08:35:25;0.30;;;0.10;;
35558;SDS011;21661;50.794;-1.066;2023-07-31T08:37:53;0.55;;;0.10;;
35558;SDS011;21661;50.794;-1.066;2023-07-31T08:40:18;0.75;;;0.00;;
35558;SDS011;21661;50.794;-1.066;2023-07-31T08:42:48;0.77;;;0.10;;
35558;SDS011;21661;50.794;-1.066;2023-07-31T08:45:16;0.50;;;0.00;;
35558;SDS011;21661;50.794;-1.066;2023-07-31T08:47:47;0.73;;;0.10;;
35558;SDS011;21661;50.794;-1.066;2023-07-31T08:50:17;0.10;;;0.00;;
35558;SDS011;21661;50.794;-1.066;2023-07-31T08:52:45;0.50;;;0.10;;
35558;SDS011;21661;50.794;-1.066;2023-07-31T08:55:11;0.40;;;0.10;;
35558;SDS011;21661;50.794;-1.066;2023-07-31T08:57:37;0.10;;;0.00;;
35558;SDS011;21661;50.794;-1.066;2023-07-31T09:00:04;0.63;;;0.10;;
35558;SDS011;21661;50.794;-1.066;2023-07-31T09:02:34;0.40;;;0.10;;
35558;SDS011;21661;50.794;-1.066;2023-07-31T09:05:11;0.20;;;0.00;;
35558;SDS011;21661;50.794;-1.066;2023-07-31T09:07:37;0.65;;;0.15;;
35558;SDS011;21661;50.794;-1.066;2023-07-31T09:10:04;0.30;;;0.10;;
35558;SDS011;21661;50.794;-1.066;2023-07-31T09:12:30;0.22;;;0.03;;
35558;SDS011;21661;50.794;-1.066;2023-07-31T09:14:57;0.40;;;0.00;;
35558;SDS011;21661;50.794;-1.066;2023-07-31T09:17:29;0.35;;;0.10;;
35558;SDS011;21661;50.794;-1.066;2023-07-31T09:19:56;0.20;;;0.00;;
35558;SDS011;21661;50.794;-1.066;2023-07-31T09:22:34;0.40;;;0.10;;
35558;SDS011;21661;50.794;-1.066;2023-07-31T09:25:13;0.30;;;0.05;;
35558;SDS011;21661;50.794;-1.066;2023-07-31T09:30:16;0.17;;;0.08;;
35558;SDS011;21661;50.794;-1.066;2023-07-31T09:32:42;0.43;;;0.05;;
35558;SDS011;21661;50.794;-1.066;2023-07-31T09:35:18;0.40;;;0.10;;
35558;SDS011;21661;50.794;-1.066;2023-07-31T09:37:55;0.65;;;0.10;;
35558;SDS011;21661;50.794;-1.066;2023-07-31T09:40:35;0.75;;;0.10;;
35558;SDS011;21661;50.794;-1.066;2023-07-31T09:43:06;0.52;;;0.00;;
35558;SDS011;21661;50.794;-1.066;2023-07-31T09:45:34;0.20;;;0.00;;
35558;SDS011;21661;50.794;-1.066;2023-07-31T09:48:06;0.32;;;0.08;;
35558;SDS011;21661;50.794;-1.066;2023-07-31T09:50:34;0.90;;;0.10;;
35558;SDS011;21661;50.794;-1.066;2023-07-31T09:53:05;0.35;;;0.00;;
35558;SDS011;21661;50.794;-1.066;2023-07-31T09:55:32;0.73;;;0.10;;
35558;SDS011;21661;50.794;-1.066;2023-07-31T09:57:58;0.82;;;0.30;;
35558;SDS011;21661;50.794;-1.066;2023-07-31T10:00:27;0.52;;;0.05;;
35558;SDS011;21661;50.794;-1.066;2023-07-31T10:02:54;0.65;;;0.10;;
35558;SDS011;21661;50.794;-1.066;2023-07-31T10:05:42;0.30;;;0.10;;
35558;SDS011;21661;50.794;-1.066;2023-07-31T10:08:14;0.43;;;0.13;;
35558;SDS011;21661;50.794;-1.066;2023-07-31T10:10:41;1.45;;;0.15;;
35558;SDS011;21661;50.794;-1.066;2023-07-31T10:13:08;1.13;;;0.20;;
35558;SDS011;21661;50.794;-1.066;2023-07-31T10:15:34;1.00;;;0.20;;
35558;SDS011;21661;50.794;-1.066;2023-07-31T10:18:01;1.15;;;0.20;;
35558;SDS011;21661;50.794;-1.066;2023-07-31T10:20:28;0.90;;;0.32;;
35558;SDS011;21661;50.794;-1.066;2023-07-31T10:22:54;1.10;;;0.30;;
35558;SDS011;21661;50.794;-1.066;2023-07-31T10:25:21;0.63;;;0.10;;
35558;SDS011;21661;50.794;-1.066;2023-07-31T10:27:47;1.30;;;0.20;;
35558;SDS011;21661;50.794;-1.066;2023-07-31T10:30:15;0.35;;;0.17;;
35558;SDS011;21661;50.794;-1.066;2023-07-31T10:32:43;0.68;;;0.20;;
35558;SDS011;21661;50.794;-1.066;2023-07-31T10:35:09;0.30;;;0.10;;
35558;SDS011;21661;50.794;-1.066;2023-07-31T10:37:40;1.02;;;0.10;;
35558;SDS011;21661;50.794;-1.066;2023-07-31T10:40:13;0.40;;;0.10;;
35558;SDS011;21661;50.794;-1.066;2023-07-31T10:42:46;0.30;;;0.10;;
35558;SDS011;21661;50.794;-1.066;2023-07-31T10:45:14;0.63;;;0.10;;
35558;SDS011;21661;50.794;-1.066;2023-07-31T10:48:05;1.15;;;0.10;;
35558;SDS011;21661;50.794;-1.066;2023-07-31T10:50:47;0.68;;;0.10;;
35558;SDS011;21661;50.794;-1.066;2023-07-31T10:53:24;1.02;;;0.13;;
35558;SDS011;21661;50.794;-1.066;2023-07-31T10:55:50;0.38;;;0.10;;
35558;SDS011;21661;50.794;-1.066;2023-07-31T10:58:17;0.35;;;0.08;;
35558;SDS011;21661;50.794;-1.066;2023-07-31T11:00:45;0.47;;;0.10;;
35558;SDS011;21661;50.794;-1.066;2023-07-31T11:03:12;0.55;;;0.10;;
35558;SDS011;21661;50.794;-1.066;2023-07-31T11:05:47;0.47;;;0.10;;
35558;SDS011;21661;50.794;-1.066;2023-07-31T11:08:23;0.70;;;0.10;;
35558;SDS011;21661;50.794;-1.066;2023-07-31T11:10:50;0.70;;;0.10;;
35558;SDS011;21661;50.794;-1.066;2023-07-31T11:16:08;0.65;;;0.10;;
35558;SDS011;21661;50.794;-1.066;2023-07-31T11:18:35;0.20;;;0.05;;
35558;SDS011;21661;50.794;-1.066;2023-07-31T11:21:01;0.40;;;0.10;;
35558;SDS011;21661;50.794;-1.066;2023-07-31T11:23:27;0.20;;;0.00;;
35558;SDS011;21661;50.794;-1.066;2023-07-31T11:25:52;0.43;;;0.10;;
35558;SDS011;21661;50.794;-1.066;2023-07-31T11:28:24;0.45;;;0.10;;
35558;SDS011;21661;50.794;-1.066;2023-07-31T11:30:50;0.40;;;0.10;;
35558;SDS011;21661;50.794;-1.066;2023-07-31T11:33:16;0.88;;;0.10;;
35558;SDS011;21661;50.794;-1.066;2023-07-31T11:35:43;0.40;;;0.00;;
35558;SDS011;21661;50.794;-1.066;2023-07-31T11:38:23;0.30;;;0.00;;
35558;SDS011;21661;50.794;-1.066;2023-07-31T11:40:50;0.50;;;0.00;;
35558;SDS011;21661;50.794;-1.066;2023-07-31T11:43:17;0.38;;;0.00;;
35558;SDS011;21661;50.794;-1.066;2023-07-31T11:45:47;0.10;;;0.00;;
35558;SDS011;21661;50.794;-1.066;2023-07-31T11:50:51;0.40;;;0.00;;
35558;SDS011;21661;50.794;-1.066;2023-07-31T11:56:02;0.17;;;0.00;;
35558;SDS011;21661;50.794;-1.066;2023-07-31T11:58:30;0.52;;;0.22;;
35558;SDS011;21661;50.794;-1.066;2023-07-31T12:00:57;0.30;;;0.10;;
35558;SDS011;21661;50.794;-1.066;2023-07-31T12:03:24;0.10;;;0.00;;
35558;SDS011;21661;50.794;-1.066;2023-07-31T12:05:50;0.73;;;0.00;;
35558;SDS011;21661;50.794;-1.066;2023-07-31T12:08:15;1.30;;;0.20;;
35558;SDS011;21661;50.794;-1.066;2023-07-31T12:10:41;0.10;;;0.00;;
35558;SDS011;21661;50.794;-1.066;2023-07-31T12:13:10;0.65;;;0.10;;
35558;SDS011;21661;50.794;-1.066;2023-07-31T12:15:44;0.35;;;0.03;;
35558;SDS011;21661;50.794;-1.066;2023-07-31T12:18:11;0.30;;;0.10;;
35558;SDS011;21661;50.794;-1.066;2023-07-31T12:20:43;0.15;;;0.00;;
35558;SDS011;21661;50.794;-1.066;2023-07-31T12:23:34;0.50;;;0.10;;
35558;SDS011;21661;50.794;-1.066;2023-07-31T12:28:26;1.27;;;0.10;;
35558;SDS011;21661;50.794;-1.066;2023-07-31T12:30:52;0.98;;;0.15;;
35558;SDS011;21661;50.794;-1.066;2023-07-31T12:33:24;0.28;;;0.10;;
35558;SDS011;21661;50.794;-1.066;2023-07-31T12:36:03;0.80;;;0.15;;
35558;SDS011;21661;50.794;-1.066;2023-07-31T12:38:31;0.93;;;0.20;;
35558;SDS011;21661;50.794;-1.066;2023-07-31T12:40:57;0.32;;;0.10;;
35558;SDS011;21661;50.794;-1.066;2023-07-31T12:43:22;0.68;;;0.20;;
35558;SDS011;21661;50.794;-1.066;2023-07-31T12:45:48;0.40;;;0.20;;
35558;SDS011;21661;50.794;-1.066;2023-07-31T12:48:14;0.77;;;0.10;;
35558;SDS011;21661;50.794;-1.066;2023-07-31T12:50:40;0.50;;;0.13;;
35558;SDS011;21661;50.794;-1.066;2023-07-31T12:53:05;0.40;;;0.10;;
35558;SDS011;21661;50.794;-1.066;2023-07-31T12:55:31;0.20;;;0.13;;
35558;SDS011;21661;50.794;-1.066;2023-07-31T12:57:59;0.40;;;0.20;;
35558;SDS011;21661;50.794;-1.066;2023-07-31T13:00:28;0.65;;;0.10;;
35558;SDS011;21661;50.794;-1.066;2023-07-31T13:02:54;0.95;;;0.30;;
35558;SDS011;21661;50.794;-1.066;2023-07-31T13:05:19;0.70;;;0.30;;
35558;SDS011;21661;50.794;-1.066;2023-07-31T13:07:46;0.60;;;0.17;;
35558;SDS011;21661;50.794;-1.066;2023-07-31T13:10:12;2.70;;;0.30;;
35558;SDS011;21661;50.794;-1.066;2023-07-31T13:12:38;0.50;;;0.10;;
35558;SDS011;21661;50.794;-1.066;2023-07-31T13:15:04;0.55;;;0.20;;
35558;SDS011;21661;50.794;-1.066;2023-07-31T13:17:30;0.60;;;0.20;;
35558;SDS011;21661;50.794;-1.066;2023-07-31T13:19:56;0.50;;;0.20;;
35558;SDS011;21661;50.794;-1.066;2023-07-31T13:22:22;1.50;;;0.40;;
35558;SDS011;21661;50.794;-1.066;2023-07-31T13:24:47;0.75;;;0.17;;
35558;SDS011;21661;50.794;-1.066;2023-07-31T13:27:13;0.98;;;0.20;;
35558;SDS011;21661;50.794;-1.066;2023-07-31T13:29:43;1.55;;;0.28;;
35558;SDS011;21661;50.794;-1.066;2023-07-31T13:32:09;0.38;;;0.10;;
35558;SDS011;21661;50.794;-1.066;2023-07-31T13:34:34;0.47;;;0.20;;
35558;SDS011;21661;50.794;-1.066;2023-07-31T13:37:00;0.65;;;0.20;;
35558;SDS011;21661;50.794;-1.066;2023-07-31T13:39:26;0.93;;;0.40;;
35558;SDS011;21661;50.794;-1.066;2023-07-31T13:41:51;1.08;;;0.40;;
35558;SDS011;21661;50.794;-1.066;2023-07-31T13:44:17;1.45;;;0.30;;
35558;SDS011;21661;50.794;-1.066;2023-07-31T13:46:42;1.48;;;0.30;;
35558;SDS011;21661;50.794;-1.066;2023-07-31T13:49:08;1.10;;;0.30;;
35558;SDS011;21661;50.794;-1.066;2023-07-31T13:51:33;0.75;;;0.20;;
35558;SDS011;21661;50.794;-1.066;2023-07-31T13:53:59;1.48;;;0.35;;
35558;SDS011;21661;50.794;-1.066;2023-07-31T13:56:24;0.70;;;0.30;;
35558;SDS011;21661;50.794;-1.066;2023-07-31T13:58:50;0.55;;;0.30;;
35558;SDS011;21661;50.794;-1.066;2023-07-31T14:01:16;1.10;;;0.30;;
35558;SDS011;21661;50.794;-1.066;2023-07-31T14:03:41;1.15;;;0.25;;
35558;SDS011;21661;50.794;-1.066;2023-07-31T14:06:08;1.10;;;0.40;;
35558;SDS011;21661;50.794;-1.066;2023-07-31T14:08:34;1.48;;;0.30;;
35558;SDS011;21661;50.794;-1.066;2023-07-31T14:10:59;0.73;;;0.30;;
35558;SDS011;21661;50.794;-1.066;2023-07-31T14:13:25;0.85;;;0.30;;
35558;SDS011;21661;50.794;-1.066;2023-07-31T14:15:50;1.40;;;0.40;;
35558;SDS011;21661;50.794;-1.066;2023-07-31T14:18:16;1.17;;;0.40;;
35558;SDS011;21661;50.794;-1.066;2023-07-31T14:20:42;1.08;;;0.40;;
35558;SDS011;21661;50.794;-1.066;2023-07-31T14:23:08;2.05;;;0.60;;
35558;SDS011;21661;50.794;-1.066;2023-07-31T14:25:33;1.67;;;0.55;;
35558;SDS011;21661;50.794;-1.066;2023-07-31T14:27:59;0.90;;;0.40;;
35558;SDS011;21661;50.794;-1.066;2023-07-31T14:30:25;1.13;;;0.40;;
35558;SDS011;21661;50.794;-1.066;2023-07-31T14:32:50;1.00;;;0.30;;
35558;SDS011;21661;50.794;-1.066;2023-07-31T14:35:16;1.08;;;0.40;;
35558;SDS011;21661;50.794;-1.066;2023-07-31T14:37:42;1.80;;;0.40;;
35558;SDS011;21661;50.794;-1.066;2023-07-31T14:40:10;1.67;;;0.50;;
35558;SDS011;21661;50.794;-1.066;2023-07-31T14:42:37;0.85;;;0.50;;
35558;SDS011;21661;50.794;-1.066;2023-07-31T14:45:04;1.48;;;0.43;;
35558;SDS011;21661;50.794;-1.066;2023-07-31T14:47:31;1.33;;;0.50;;
35558;SDS011;21661;50.794;-1.066;2023-07-31T14:49:57;1.63;;;0.50;;